KBNO

Burns Municipal Airport

Burns, Oregon, USA
METAR KBNO 170153Z AUTO 12003KT 10SM CLR M07/M09 A3019 RMK AO2 SLP272 T10671094
Observed Flight Rules
Dec-17 @ 01:53 UTC (39 minutes ago) Visual Flight Rules
Wind Visibility Clouds
120° at 3 knots 10 miles
  • Clear skies
Temperatures Readings
Current -7°C / 19°F
Dewpoint -9°C / 16°F
Humidity 86%
Altimeter 30.19" Hg
Pressure 1027.2 hPa
Elevation 1264
METAR KBNO 170153Z AUTO 12003KT 10SM CLR M07/M09 A3019 RMK AO2 SLP272 T10671094
Observed Flight Rules
Dec-17 @ 01:53 UTC
(39 minutes ago)
VFR
Wind Visibility
120° at 3 knots 10 miles
Clouds
  • Clear skies
Temperature Dewpoint
-7°C / 19°F -9°C / 16°F
Humidity Altimeter Pressure
86% 30.19" Hg 1027.2 hPa